sensor_id;sensor_type;location;lat;lon;timestamp;pressure;altitude;pressure_sealevel;temperature;humidity
51759;BME280;66684;47.568;18.734;2023-04-10T00:00:09;100216.72;;;2.43;100.00
51759;BME280;66684;47.568;18.734;2023-04-10T00:02:35;100208.19;;;2.53;100.00
51759;BME280;66684;47.568;18.734;2023-04-10T00:05:05;100211.50;;;2.52;100.00
51759;BME280;66684;47.568;18.734;2023-04-10T00:07:31;100204.75;;;2.42;100.00
51759;BME280;66684;47.568;18.734;2023-04-10T00:09:57;100211.22;;;2.49;100.00
51759;BME280;66684;47.568;18.734;2023-04-10T00:12:23;100207.78;;;2.58;100.00
51759;BME280;66684;47.568;18.734;2023-04-10T00:14:49;100205.19;;;2.68;100.00
51759;BME280;66684;47.568;18.734;2023-04-10T00:17:15;100200.47;;;2.63;100.00
51759;BME280;66684;47.568;18.734;2023-04-10T00:19:41;100202.69;;;2.58;100.00
51759;BME280;66684;47.568;18.734;2023-04-10T00:22:07;100203.47;;;2.37;100.00
51759;BME280;66684;47.568;18.734;2023-04-10T00:24:33;100200.81;;;2.15;100.00
51759;BME280;66684;47.568;18.734;2023-04-10T00:26:59;100195.56;;;2.34;100.00
51759;BME280;66684;47.568;18.734;2023-04-10T00:29:26;100191.75;;;2.29;100.00
51759;BME280;66684;47.568;18.734;2023-04-10T00:31:51;100191.47;;;2.36;100.00
51759;BME280;66684;47.568;18.734;2023-04-10T00:34:17;100184.59;;;2.35;100.00
51759;BME280;66684;47.568;18.734;2023-04-10T00:36:44;100182.31;;;2.17;100.00
51759;BME280;66684;47.568;18.734;2023-04-10T00:39:11;100181.94;;;2.13;100.00
51759;BME280;66684;47.568;18.734;2023-04-10T00:41:37;100182.19;;;2.06;100.00
51759;BME280;66684;47.568;18.734;2023-04-10T00:44:03;100186.03;;;2.11;100.00
51759;BME280;66684;47.568;18.734;2023-04-10T00:46:30;100183.97;;;2.07;100.00
51759;BME280;66684;47.568;18.734;2023-04-10T00:48:56;100184.84;;;2.07;100.00
51759;BME280;66684;47.568;18.734;2023-04-10T00:51:24;100177.75;;;2.03;100.00
51759;BME280;66684;47.568;18.734;2023-04-10T00:53:51;100180.03;;;2.00;100.00
51759;BME280;66684;47.568;18.734;2023-04-10T00:56:18;100180.41;;;2.05;100.00
51759;BME280;66684;47.568;18.734;2023-04-10T00:58:44;100169.09;;;2.01;100.00
51759;BME280;66684;47.568;18.734;2023-04-10T01:01:10;100174.94;;;2.00;100.00
51759;BME280;66684;47.568;18.734;2023-04-10T01:03:37;100172.13;;;1.97;100.00
51759;BME280;66684;47.568;18.734;2023-04-10T01:06:26;100174.19;;;2.01;100.00
51759;BME280;66684;47.568;18.734;2023-04-10T01:09:08;100171.25;;;1.97;100.00
51759;BME280;66684;47.568;18.734;2023-04-10T01:14:30;100175.56;;;1.87;100.00
51759;BME280;66684;47.568;18.734;2023-04-10T01:17:07;100176.44;;;1.88;100.00
51759;BME280;66684;47.568;18.734;2023-04-10T01:22:35;100168.59;;;1.95;100.00
51759;BME280;66684;47.568;18.734;2023-04-10T01:31:01;100171.66;;;2.01;100.00
51759;BME280;66684;47.568;18.734;2023-04-10T01:33:38;100176.47;;;2.08;100.00
51759;BME280;66684;47.568;18.734;2023-04-10T01:36:06;100160.91;;;2.05;100.00
51759;BME280;66684;47.568;18.734;2023-04-10T01:38:34;100159.13;;;2.04;100.00
51759;BME280;66684;47.568;18.734;2023-04-10T01:41:01;100162.69;;;2.06;100.00
51759;BME280;66684;47.568;18.734;2023-04-10T01:43:29;100163.69;;;2.19;100.00
51759;BME280;66684;47.568;18.734;2023-04-10T01:45:57;100164.47;;;2.28;100.00
51759;BME280;66684;47.568;18.734;2023-04-10T01:48:24;100167.88;;;2.38;100.00
51759;BME280;66684;47.568;18.734;2023-04-10T01:50:51;100164.09;;;2.13;100.00
51759;BME280;66684;47.568;18.734;2023-04-10T01:53:18;100162.44;;;2.24;100.00
51759;BME280;66684;47.568;18.734;2023-04-10T01:55:44;100162.94;;;2.30;100.00
51759;BME280;66684;47.568;18.734;2023-04-10T01:58:11;100160.38;;;2.40;100.00
51759;BME280;66684;47.568;18.734;2023-04-10T02:00:41;100169.91;;;2.42;100.00
51759;BME280;66684;47.568;18.734;2023-04-10T02:03:08;100163.44;;;2.36;100.00
51759;BME280;66684;47.568;18.734;2023-04-10T02:08:52;100157.78;;;2.50;100.00
51759;BME280;66684;47.568;18.734;2023-04-10T02:14:24;100153.94;;;2.65;100.00
51759;BME280;66684;47.568;18.734;2023-04-10T02:16:54;100151.88;;;2.72;100.00
51759;BME280;66684;47.568;18.734;2023-04-10T02:19:22;100153.38;;;2.80;100.00
51759;BME280;66684;47.568;18.734;2023-04-10T02:21:50;100155.91;;;2.90;100.00
51759;BME280;66684;47.568;18.734;2023-04-10T02:24:17;100157.41;;;2.88;100.00
51759;BME280;66684;47.568;18.734;2023-04-10T02:26:48;100156.78;;;2.90;100.00
51759;BME280;66684;47.568;18.734;2023-04-10T02:29:14;100163.00;;;2.94;100.00
51759;BME280;66684;47.568;18.734;2023-04-10T02:31:41;100160.22;;;2.91;100.00
51759;BME280;66684;47.568;18.734;2023-04-10T02:34:07;100168.59;;;3.00;100.00
51759;BME280;66684;47.568;18.734;2023-04-10T02:36:34;100164.22;;;3.09;100.00
51759;BME280;66684;47.568;18.734;2023-04-10T02:39:00;100159.25;;;3.11;100.00
51759;BME280;66684;47.568;18.734;2023-04-10T02:41:25;100152.16;;;3.18;100.00
51759;BME280;66684;47.568;18.734;2023-04-10T02:43:51;100146.88;;;3.05;100.00
51759;BME280;66684;47.568;18.734;2023-04-10T02:46:17;100148.91;;;3.09;100.00
51759;BME280;66684;47.568;18.734;2023-04-10T02:48:43;100148.34;;;3.13;100.00
51759;BME280;66684;47.568;18.734;2023-04-10T02:51:09;100134.06;;;3.15;100.00
51759;BME280;66684;47.568;18.734;2023-04-10T02:53:35;100133.81;;;3.12;100.00
51759;BME280;66684;47.568;18.734;2023-04-10T02:56:01;100133.72;;;3.11;100.00
51759;BME280;66684;47.568;18.734;2023-04-10T02:58:28;100138.91;;;3.12;100.00
51759;BME280;66684;47.568;18.734;2023-04-10T03:00:56;100143.69;;;3.30;100.00
51759;BME280;66684;47.568;18.734;2023-04-10T03:03:22;100143.09;;;3.44;100.00
51759;BME280;66684;47.568;18.734;2023-04-10T03:05:48;100144.75;;;3.43;100.00
51759;BME280;66684;47.568;18.734;2023-04-10T03:08:15;100150.81;;;3.34;100.00
51759;BME280;66684;47.568;18.734;2023-04-10T03:10:46;100149.03;;;3.33;100.00
51759;BME280;66684;47.568;18.734;2023-04-10T03:13:13;100143.03;;;3.32;100.00
51759;BME280;66684;47.568;18.734;2023-04-10T03:15:40;100136.50;;;3.36;100.00
51759;BME280;66684;47.568;18.734;2023-04-10T03:18:05;100138.28;;;3.37;100.00
51759;BME280;66684;47.568;18.734;2023-04-10T03:20:32;100138.38;;;3.38;100.00
51759;BME280;66684;47.568;18.734;2023-04-10T03:22:58;100133.22;;;3.27;100.00
51759;BME280;66684;47.568;18.734;2023-04-10T03:25:25;100135.66;;;3.25;100.00
51759;BME280;66684;47.568;18.734;2023-04-10T03:27:51;100140.97;;;3.16;100.00
51759;BME280;66684;47.568;18.734;2023-04-10T03:30:17;100146.06;;;3.16;100.00
51759;BME280;66684;47.568;18.734;2023-04-10T03:32:43;100142.25;;;3.11;100.00
51759;BME280;66684;47.568;18.734;2023-04-10T03:35:09;100149.31;;;3.04;100.00
51759;BME280;66684;47.568;18.734;2023-04-10T03:37:35;100147.12;;;3.08;100.00
51759;BME280;66684;47.568;18.734;2023-04-10T03:40:06;100139.47;;;3.08;100.00
51759;BME280;66684;47.568;18.734;2023-04-10T03:42:32;100143.06;;;3.00;100.00
51759;BME280;66684;47.568;18.734;2023-04-10T03:44:58;100140.19;;;2.95;100.00
51759;BME280;66684;47.568;18.734;2023-04-10T03:47:25;100139.13;;;2.93;100.00
51759;BME280;66684;47.568;18.734;2023-04-10T03:49:51;100145.94;;;2.83;100.00
51759;BME280;66684;47.568;18.734;2023-04-10T03:52:17;100139.84;;;2.81;100.00
51759;BME280;66684;47.568;18.734;2023-04-10T03:54:43;100148.06;;;2.66;100.00
51759;BME280;66684;47.568;18.734;2023-04-10T03:57:09;100146.00;;;2.73;100.00
51759;BME280;66684;47.568;18.734;2023-04-10T03:59:35;100151.59;;;2.79;100.00
51759;BME280;66684;47.568;18.734;2023-04-10T04:02:01;100158.25;;;2.77;100.00
51759;BME280;66684;47.568;18.734;2023-04-10T04:04:27;100160.03;;;2.78;100.00
51759;BME280;66684;47.568;18.734;2023-04-10T04:06:53;100152.66;;;2.70;100.00
51759;BME280;66684;47.568;18.734;2023-04-10T04:09:19;100148.56;;;2.62;100.00
51759;BME280;66684;47.568;18.734;2023-04-10T04:11:45;100154.91;;;2.78;100.00
51759;BME280;66684;47.568;18.734;2023-04-10T04:14:11;100158.47;;;2.80;100.00
51759;BME280;66684;47.568;18.734;2023-04-10T04:16:37;100158.47;;;2.80;100.00
51759;BME280;66684;47.568;18.734;2023-04-10T04:19:02;100163.09;;;2.74;100.00
51759;BME280;66684;47.568;18.734;2023-04-10T04:21:28;100154.66;;;2.75;100.00
51759;BME280;66684;47.568;18.734;2023-04-10T04:23:54;100160.03;;;2.78;100.00
51759;BME280;66684;47.568;18.734;2023-04-10T04:26:20;100161.78;;;2.79;100.00
51759;BME280;66684;47.568;18.734;2023-04-10T04:28:46;100166.63;;;2.76;100.00
51759;BME280;66684;47.568;18.734;2023-04-10T04:31:12;100160.03;;;2.67;100.00
51759;BME280;66684;47.568;18.734;2023-04-10T04:33:38;100170.25;;;2.67;100.00
51759;BME280;66684;47.568;18.734;2023-04-10T04:36:04;100169.34;;;2.67;100.00
51759;BME280;66684;47.568;18.734;2023-04-10T04:38:30;100163.66;;;2.59;100.00
51759;BME280;66684;47.568;18.734;2023-04-10T04:40:56;100163.66;;;2.49;100.00
51759;BME280;66684;47.568;18.734;2023-04-10T04:43:22;100164.53;;;2.50;100.00
51759;BME280;66684;47.568;18.734;2023-04-10T04:45:48;100165.03;;;2.56;100.00
51759;BME280;66684;47.568;18.734;2023-04-10T04:48:14;100169.88;;;2.63;100.00
51759;BME280;66684;47.568;18.734;2023-04-10T04:50:39;100177.41;;;2.61;100.00
51759;BME280;66684;47.568;18.734;2023-04-10T04:53:07;100174.34;;;2.65;100.00
51759;BME280;66684;47.568;18.734;2023-04-10T04:55:33;100172.56;;;2.64;100.00
51759;BME280;66684;47.568;18.734;2023-04-10T04:57:59;100188.09;;;2.67;100.00
51759;BME280;66684;47.568;18.734;2023-04-10T05:00:25;100177.66;;;2.64;100.00
51759;BME280;66684;47.568;18.734;2023-04-10T05:02:51;100184.00;;;2.69;100.00
51759;BME280;66684;47.568;18.734;2023-04-10T05:05:17;100185.03;;;2.72;100.00
51759;BME280;66684;47.568;18.734;2023-04-10T05:07:43;100180.16;;;2.75;100.00
51759;BME280;66684;47.568;18.734;2023-04-10T05:10:09;100193.44;;;2.81;100.00
51759;BME280;66684;47.568;18.734;2023-04-10T05:12:35;100191.88;;;2.83;100.00
51759;BME280;66684;47.568;18.734;2023-04-10T05:15:01;100195.69;;;2.88;100.00
51759;BME280;66684;47.568;18.734;2023-04-10T05:17:26;100188.81;;;2.87;100.00
51759;BME280;66684;47.568;18.734;2023-04-10T05:19:52;100188.31;;;2.91;100.00
51759;BME280;66684;47.568;18.734;2023-04-10T05:22:18;100194.38;;;3.03;100.00
51759;BME280;66684;47.568;18.734;2023-04-10T05:24:44;100186.44;;;3.10;100.00
51759;BME280;66684;47.568;18.734;2023-04-10T05:27:10;100184.66;;;3.31;100.00
51759;BME280;66684;47.568;18.734;2023-04-10T05:29:36;100192.16;;;3.40;100.00
51759;BME280;66684;47.568;18.734;2023-04-10T05:32:02;100194.91;;;3.53;100.00
51759;BME280;66684;47.568;18.734;2023-04-10T05:34:28;100196.97;;;3.69;100.00
51759;BME280;66684;47.568;18.734;2023-04-10T05:36:54;100192.78;;;3.81;100.00
51759;BME280;66684;47.568;18.734;2023-04-10T05:39:20;100197.25;;;3.84;100.00
51759;BME280;66684;47.568;18.734;2023-04-10T05:41:45;100200.91;;;4.09;100.00
51759;BME280;66684;47.568;18.734;2023-04-10T05:44:11;100206.03;;;4.21;100.00
51759;BME280;66684;47.568;18.734;2023-04-10T05:46:37;100200.25;;;4.23;100.00
51759;BME280;66684;47.568;18.734;2023-04-10T05:49:03;100205.50;;;4.37;100.00
51759;BME280;66684;47.568;18.734;2023-04-10T05:51:29;100200.97;;;4.56;100.00
51759;BME280;66684;47.568;18.734;2023-04-10T05:53:55;100202.31;;;4.74;100.00
51759;BME280;66684;47.568;18.734;2023-04-10T05:56:21;100199.87;;;4.87;100.00
51759;BME280;66684;47.568;18.734;2023-04-10T05:58:47;100204.31;;;5.02;100.00
51759;BME280;66684;47.568;18.734;2023-04-10T06:01:13;100199.53;;;5.06;100.00
51759;BME280;66684;47.568;18.734;2023-04-10T06:03:39;100196.28;;;5.09;100.00
51759;BME280;66684;47.568;18.734;2023-04-10T06:06:06;100199.16;;;5.25;100.00
51759;BME280;66684;47.568;18.734;2023-04-10T06:08:32;100199.25;;;5.38;100.00
51759;BME280;66684;47.568;18.734;2023-04-10T06:10:59;100197.78;;;5.54;100.00
51759;BME280;66684;47.568;18.734;2023-04-10T06:13:25;100202.22;;;5.56;100.00
51759;BME280;66684;47.568;18.734;2023-04-10T06:15:52;100204.44;;;5.52;100.00
51759;BME280;66684;47.568;18.734;2023-04-10T06:18:18;100205.53;;;5.67;100.00
51759;BME280;66684;47.568;18.734;2023-04-10T06:20:44;100204.38;;;5.75;100.00
51759;BME280;66684;47.568;18.734;2023-04-10T06:23:10;100206.31;;;5.66;100.00
51759;BME280;66684;47.568;18.734;2023-04-10T06:25:36;100204.81;;;5.81;100.00
51759;BME280;66684;47.568;18.734;2023-04-10T06:28:03;100207.44;;;5.94;100.00
51759;BME280;66684;47.568;18.734;2023-04-10T06:30:29;100205.72;;;6.07;100.00
51759;BME280;66684;47.568;18.734;2023-04-10T06:32:55;100206.06;;;6.25;100.00
51759;BME280;66684;47.568;18.734;2023-04-10T06:35:21;100202.72;;;6.26;100.00
51759;BME280;66684;47.568;18.734;2023-04-10T06:37:47;100204.56;;;6.15;100.00
51759;BME280;66684;47.568;18.734;2023-04-10T06:40:13;100199.25;;;6.25;100.00
51759;BME280;66684;47.568;18.734;2023-04-10T06:42:40;100202.06;;;6.41;100.00
51759;BME280;66684;47.568;18.734;2023-04-10T06:45:06;100205.88;;;6.73;100.00
51759;BME280;66684;47.568;18.734;2023-04-10T06:47:33;100207.81;;;6.77;100.00
51759;BME280;66684;47.568;18.734;2023-04-10T06:49:59;100213.97;;;6.79;100.00
51759;BME280;66684;47.568;18.734;2023-04-10T06:52:25;100208.22;;;6.57;100.00
51759;BME280;66684;47.568;18.734;2023-04-10T06:54:51;100218.62;;;6.33;100.00
51759;BME280;66684;47.568;18.734;2023-04-10T06:57:17;100216.28;;;6.36;100.00
51759;BME280;66684;47.568;18.734;2023-04-10T06:59:43;100210.78;;;6.18;100.00
51759;BME280;66684;47.568;18.734;2023-04-10T07:02:10;100214.91;;;6.41;100.00
51759;BME280;66684;47.568;18.734;2023-04-10T07:04:36;100213.19;;;6.67;100.00
51759;BME280;66684;47.568;18.734;2023-04-10T07:07:02;100211.81;;;6.85;100.00
51759;BME280;66684;47.568;18.734;2023-04-10T07:09:28;100217.13;;;6.75;100.00
51759;BME280;66684;47.568;18.734;2023-04-10T07:11:55;100216.63;;;6.94;100.00
51759;BME280;66684;47.568;18.734;2023-04-10T07:14:21;100208.81;;;7.19;100.00
51759;BME280;66684;47.568;18.734;2023-04-10T07:16:47;100211.00;;;7.13;100.00
51759;BME280;66684;47.568;18.734;2023-04-10T07:19:14;100202.69;;;7.30;100.00
51759;BME280;66684;47.568;18.734;2023-04-10T07:21:40;100207.97;;;7.46;100.00
51759;BME280;66684;47.568;18.734;2023-04-10T07:24:06;100204.03;;;7.38;100.00
51759;BME280;66684;47.568;18.734;2023-04-10T07:26:32;100203.25;;;7.39;100.00
51759;BME280;66684;47.568;18.734;2023-04-10T07:28:58;100208.38;;;7.39;100.00
51759;BME280;66684;47.568;18.734;2023-04-10T07:31:24;100203.09;;;7.64;100.00
51759;BME280;66684;47.568;18.734;2023-04-10T07:33:50;100203.75;;;7.75;100.00
51759;BME280;66684;47.568;18.734;2023-04-10T07:36:16;100202.56;;;7.70;100.00
51759;BME280;66684;47.568;18.734;2023-04-10T07:38:42;100205.25;;;7.99;100.00
51759;BME280;66684;47.568;18.734;2023-04-10T07:41:08;100200.09;;;8.14;100.00
51759;BME280;66684;47.568;18.734;2023-04-10T07:43:36;100197.91;;;8.35;100.00
51759;BME280;66684;47.568;18.734;2023-04-10T07:46:02;100194.31;;;8.46;100.00
51759;BME280;66684;47.568;18.734;2023-04-10T07:48:28;100194.22;;;8.45;100.00
51759;BME280;66684;47.568;18.734;2023-04-10T07:50:54;100191.09;;;8.65;100.00
51759;BME280;66684;47.568;18.734;2023-04-10T07:53:20;100186.37;;;8.87;98.48
51759;BME280;66684;47.568;18.734;2023-04-10T07:55:48;100189.31;;;8.94;99.43
51759;BME280;66684;47.568;18.734;2023-04-10T07:58:14;100187.31;;;9.04;96.13
51759;BME280;66684;47.568;18.734;2023-04-10T08:00:41;100193.13;;;9.00;94.74
51759;BME280;66684;47.568;18.734;2023-04-10T08:03:07;100186.56;;;9.22;92.86
51759;BME280;66684;47.568;18.734;2023-04-10T08:05:33;100179.03;;;9.41;95.85
51759;BME280;66684;47.568;18.734;2023-04-10T08:07:59;100182.41;;;9.40;96.37
51759;BME280;66684;47.568;18.734;2023-04-10T08:10:25;100182.13;;;9.66;88.84
51759;BME280;66684;47.568;18.734;2023-04-10T08:12:50;100184.41;;;9.77;84.45
51759;BME280;66684;47.568;18.734;2023-04-10T08:15:17;100178.75;;;10.00;85.44
51759;BME280;66684;47.568;18.734;2023-04-10T08:17:43;100178.25;;;10.23;85.79
51759;BME280;66684;47.568;18.734;2023-04-10T08:20:11;100174.50;;;10.35;88.75
51759;BME280;66684;47.568;18.734;2023-04-10T08:22:37;100171.81;;;10.49;86.27
51759;BME280;66684;47.568;18.734;2023-04-10T08:25:03;100178.63;;;10.65;87.97
51759;BME280;66684;47.568;18.734;2023-04-10T08:27:29;100178.63;;;10.65;78.16
51759;BME280;66684;47.568;18.734;2023-04-10T08:29:56;100175.87;;;10.62;85.87
51759;BME280;66684;47.568;18.734;2023-04-10T08:32:22;100170.34;;;10.54;78.78
51759;BME280;66684;47.568;18.734;2023-04-10T08:34:51;100171.12;;;10.70;80.76
51759;BME280;66684;47.568;18.734;2023-04-10T08:37:16;100167.13;;;10.76;83.81
51759;BME280;66684;47.568;18.734;2023-04-10T08:39:44;100166.25;;;10.94;84.19
51759;BME280;66684;47.568;18.734;2023-04-10T08:42:10;100169.31;;;11.04;84.70
51759;BME280;66684;47.568;18.734;2023-04-10T08:44:36;100175.09;;;10.99;85.77
51759;BME280;66684;47.568;18.734;2023-04-10T08:47:03;100156.91;;;11.15;76.10
51759;BME280;66684;47.568;18.734;2023-04-10T08:49:45;100158.69;;;11.16;74.99
51759;BME280;66684;47.568;18.734;2023-04-10T08:52:20;100158.84;;;11.19;74.22
51759;BME280;66684;47.568;18.734;2023-04-10T08:54:50;100158.38;;;11.10;72.68
51759;BME280;66684;47.568;18.734;2023-04-10T08:57:18;100152.09;;;11.23;71.46
51759;BME280;66684;47.568;18.734;2023-04-10T08:59:46;100162.47;;;11.42;72.45
51759;BME280;66684;47.568;18.734;2023-04-10T09:02:12;100151.47;;;11.46;73.17
51759;BME280;66684;47.568;18.734;2023-04-10T09:04:38;100151.72;;;11.52;69.81
51759;BME280;66684;47.568;18.734;2023-04-10T09:07:04;100152.69;;;11.54;71.40
51759;BME280;66684;47.568;18.734;2023-04-10T09:09:30;100159.66;;;11.38;67.81
51759;BME280;66684;47.568;18.734;2023-04-10T09:12:00;100147.81;;;11.43;66.56
51759;BME280;66684;47.568;18.734;2023-04-10T09:14:33;100148.06;;;11.67;65.26
51759;BME280;66684;47.568;18.734;2023-04-10T09:17:21;100147.09;;;11.82;64.63
51759;BME280;66684;47.568;18.734;2023-04-10T09:19:50;100141.66;;;11.78;60.87
51759;BME280;66684;47.568;18.734;2023-04-10T09:22:33;100144.56;;;11.84;64.67
51759;BME280;66684;47.568;18.734;2023-04-10T09:25:01;100137.72;;;11.86;60.79
51759;BME280;66684;47.568;18.734;2023-04-10T09:27:28;100138.87;;;11.93;61.59
51759;BME280;66684;47.568;18.734;2023-04-10T09:29:58;100146.81;;;12.17;62.29
51759;BME280;66684;47.568;18.734;2023-04-10T09:32:41;100127.28;;;12.04;58.50
51759;BME280;66684;47.568;18.734;2023-04-10T09:35:16;100129.00;;;12.24;60.31
51759;BME280;66684;47.568;18.734;2023-04-10T09:37:44;100127.19;;;12.22;58.49
51759;BME280;66684;47.568;18.734;2023-04-10T09:40:22;100122.72;;;12.38;56.31
51759;BME280;66684;47.568;18.734;2023-04-10T09:42:49;100122.31;;;12.29;55.56
51759;BME280;66684;47.568;18.734;2023-04-10T09:45:15;100118.97;;;12.53;53.34
51759;BME280;66684;47.568;18.734;2023-04-10T09:48:02;100105.31;;;12.57;55.92
51759;BME280;66684;47.568;18.734;2023-04-10T09:50:38;100124.84;;;12.69;56.42
51759;BME280;66684;47.568;18.734;2023-04-10T09:53:06;100106.28;;;12.59;53.58
51759;BME280;66684;47.568;18.734;2023-04-10T09:55:34;100111.25;;;12.98;51.03
51759;BME280;66684;47.568;18.734;2023-04-10T09:58:03;100109.31;;;12.92;50.06
51759;BME280;66684;47.568;18.734;2023-04-10T10:00:29;100109.72;;;12.80;51.40
51759;BME280;66684;47.568;18.734;2023-04-10T10:02:56;100112.28;;;13.01;55.50
51759;BME280;66684;47.568;18.734;2023-04-10T10:05:23;100110.22;;;13.15;48.93
51759;BME280;66684;47.568;18.734;2023-04-10T10:07:56;100108.16;;;12.63;49.63
51759;BME280;66684;47.568;18.734;2023-04-10T10:10:23;100104.03;;;12.68;48.72
51759;BME280;66684;47.568;18.734;2023-04-10T10:12:53;100113.72;;;12.72;48.97
51759;BME280;66684;47.568;18.734;2023-04-10T10:15:33;100102.22;;;12.65;47.02
51759;BME280;66684;47.568;18.734;2023-04-10T10:21:09;100098.16;;;13.17;50.00
51759;BME280;66684;47.568;18.734;2023-04-10T10:23:36;100089.97;;;13.06;49.21
51759;BME280;66684;47.568;18.734;2023-04-10T10:26:04;100093.44;;;13.07;50.40
51759;BME280;66684;47.568;18.734;2023-04-10T10:28:32;100078.25;;;12.93;45.93
51759;BME280;66684;47.568;18.734;2023-04-10T10:31:01;100079.75;;;12.88;47.91
51759;BME280;66684;47.568;18.734;2023-04-10T10:33:28;100080.50;;;12.84;47.59
51759;BME280;66684;47.568;18.734;2023-04-10T10:35:58;100077.84;;;13.28;50.81
51759;BME280;66684;47.568;18.734;2023-04-10T10:38:25;100086.25;;;13.44;48.40
51759;BME280;66684;47.568;18.734;2023-04-10T10:41:15;100081.34;;;13.52;48.88
51759;BME280;66684;47.568;18.734;2023-04-10T10:44:47;100079.25;;;13.66;48.71
51759;BME280;66684;47.568;18.734;2023-04-10T10:46:48;100071.72;;;13.73;47.22
51759;BME280;66684;47.568;18.734;2023-04-10T10:49:15;100066.81;;;14.07;46.92
51759;BME280;66684;47.568;18.734;2023-04-10T10:51:46;100067.22;;;14.19;46.97
51759;BME280;66684;47.568;18.734;2023-04-10T10:56:52;100060.38;;;14.46;44.84
51759;BME280;66684;47.568;18.734;2023-04-10T11:02:14;100070.38;;;14.36;45.31
51759;BME280;66684;47.568;18.734;2023-04-10T11:04:42;100045.38;;;13.88;45.92
51759;BME280;66684;47.568;18.734;2023-04-10T11:07:09;100055.47;;;13.79;45.51
51759;BME280;66684;47.568;18.734;2023-04-10T11:09:52;100056.63;;;13.87;45.99
51759;BME280;66684;47.568;18.734;2023-04-10T11:12:20;100050.75;;;13.93;44.70
51759;BME280;66684;47.568;18.734;2023-04-10T11:15:07;100039.09;;;13.82;46.56
51759;BME280;66684;47.568;18.734;2023-04-10T11:17:53;100047.31;;;13.94;45.82
51759;BME280;66684;47.568;18.734;2023-04-10T11:20:20;100043.63;;;13.87;47.20
51759;BME280;66684;47.568;18.734;2023-04-10T11:23:05;100046.81;;;13.79;49.41
51759;BME280;66684;47.568;18.734;2023-04-10T11:25:52;100044.53;;;13.64;47.32
51759;BME280;66684;47.568;18.734;2023-04-10T11:28:37;100048.62;;;13.57;49.02
51759;BME280;66684;47.568;18.734;2023-04-10T11:31:20;100059.94;;;13.58;48.45
51759;BME280;66684;47.568;18.734;2023-04-10T11:34:00;100043.13;;;13.48;49.14
51759;BME280;66684;47.568;18.734;2023-04-10T11:36:27;100042.78;;;13.63;50.04
51759;BME280;66684;47.568;18.734;2023-04-10T11:39:02;100055.41;;;13.52;51.51
51759;BME280;66684;47.568;18.734;2023-04-10T11:41:42;100046.16;;;13.60;49.44
51759;BME280;66684;47.568;18.734;2023-04-10T11:44:10;100046.31;;;13.65;48.56
51759;BME280;66684;47.568;18.734;2023-04-10T11:46:38;100041.34;;;13.71;49.73
51759;BME280;66684;47.568;18.734;2023-04-10T11:49:06;100042.47;;;13.54;50.79
51759;BME280;66684;47.568;18.734;2023-04-10T11:51:35;100040.47;;;13.46;53.88
51759;BME280;66684;47.568;18.734;2023-04-10T11:54:09;100040.69;;;13.53;52.45
51759;BME280;66684;47.568;18.734;2023-04-10T11:56:37;100035.66;;;13.83;51.06
51759;BME280;66684;47.568;18.734;2023-04-10T11:59:03;100038.44;;;13.87;50.41
51759;BME280;66684;47.568;18.734;2023-04-10T12:01:32;100037.94;;;13.97;50.90
51759;BME280;66684;47.568;18.734;2023-04-10T12:03:59;100029.59;;;13.82;53.29
51759;BME280;66684;47.568;18.734;2023-04-10T12:06:26;100037.28;;;14.04;51.03
51759;BME280;66684;47.568;18.734;2023-04-10T12:08:52;100030.63;;;14.13;48.35
51759;BME280;66684;47.568;18.734;2023-04-10T12:11:23;100030.22;;;13.75;51.37
51759;BME280;66684;47.568;18.734;2023-04-10T12:13:56;100025.16;;;13.54;50.42
51759;BME280;66684;47.568;18.734;2023-04-10T12:16:23;100018.78;;;13.70;50.68
51759;BME280;66684;47.568;18.734;2023-04-10T12:18:50;100012.06;;;13.51;50.75
51759;BME280;66684;47.568;18.734;2023-04-10T12:21:17;100019.41;;;13.63;52.19
51759;BME280;66684;47.568;18.734;2023-04-10T12:23:43;100021.53;;;13.49;51.42
51759;BME280;66684;47.568;18.734;2023-04-10T12:26:16;100005.84;;;13.46;50.47
51759;BME280;66684;47.568;18.734;2023-04-10T12:28:52;100015.47;;;13.74;49.94
51759;BME280;66684;47.568;18.734;2023-04-10T12:31:25;100008.81;;;13.82;50.12
51759;BME280;66684;47.568;18.734;2023-04-10T12:33:52;100005.19;;;13.77;49.23
51759;BME280;66684;47.568;18.734;2023-04-10T12:36:27;100002.38;;;13.45;48.32
51759;BME280;66684;47.568;18.734;2023-04-10T12:38:58;99994.16;;;13.33;50.47
51759;BME280;66684;47.568;18.734;2023-04-10T12:41:27;99986.37;;;13.33;51.08
51759;BME280;66684;47.568;18.734;2023-04-10T12:44:07;99986.25;;;13.30;51.61
51759;BME280;66684;47.568;18.734;2023-04-10T12:46:33;99983.03;;;13.37;52.83
51759;BME280;66684;47.568;18.734;2023-04-10T12:51:50;99975.38;;;13.66;53.22
51759;BME280;66684;47.568;18.734;2023-04-10T12:54:34;99976.22;;;13.65;53.48
51759;BME280;66684;47.568;18.734;2023-04-10T12:57:00;99966.50;;;13.59;51.64
51759;BME280;66684;47.568;18.734;2023-04-10T12:59:28;99965.72;;;13.62;53.17
51759;BME280;66684;47.568;18.734;2023-04-10T13:01:54;99960.84;;;13.71;52.41
51759;BME280;66684;47.568;18.734;2023-04-10T13:04:20;99952.19;;;13.97;49.50
51759;BME280;66684;47.568;18.734;2023-04-10T13:06:47;99947.97;;;14.28;50.65
51759;BME280;66684;47.568;18.734;2023-04-10T13:09:14;99938.84;;;14.69;47.70
51759;BME280;66684;47.568;18.734;2023-04-10T13:11:40;99932.00;;;14.73;47.06
51759;BME280;66684;47.568;18.734;2023-04-10T13:14:07;99927.91;;;15.13;47.57